createdAt,value
2023-05-27T00:01:22.360Z,4.55
2023-05-27T00:03:51.667Z,5.82
2023-05-27T00:06:20.561Z,5.28
2023-05-27T00:08:49.002Z,4.53
2023-05-27T00:11:17.506Z,3.97
2023-05-27T00:13:46.157Z,4.70
2023-05-27T00:16:17.810Z,5.50
2023-05-27T00:18:46.315Z,4.65
2023-05-27T00:21:15.019Z,3.45
2023-05-27T00:23:47.138Z,4.15
2023-05-27T00:26:15.795Z,4.28
2023-05-27T00:28:47.729Z,5.75
2023-05-27T00:31:17.574Z,4.50
2023-05-27T00:33:47.632Z,5.18
2023-05-27T00:36:16.096Z,4.53
2023-05-27T00:38:44.694Z,4.88
2023-05-27T00:41:14.022Z,4.35
2023-05-27T00:43:42.468Z,5.35
2023-05-27T00:46:11.760Z,4.80
2023-05-27T00:48:42.029Z,4.50
2023-05-27T00:51:10.748Z,5.00
2023-05-27T00:53:42.729Z,3.83
2023-05-27T00:56:12.157Z,5.80
2023-05-27T00:58:40.720Z,5.43
2023-05-27T01:01:10.265Z,4.20
2023-05-27T01:03:43.052Z,4.68
2023-05-27T01:06:21.242Z,6.13
2023-05-27T01:09:01.095Z,4.50
2023-05-27T01:11:35.848Z,4.53
2023-05-27T01:14:09.591Z,6.53
2023-05-27T01:16:41.456Z,3.75
2023-05-27T01:19:15.664Z,5.88
2023-05-27T01:21:51.869Z,3.97
2023-05-27T01:24:22.307Z,4.63
2023-05-27T01:26:51.273Z,4.03
2023-05-27T01:29:21.062Z,4.05
2023-05-27T01:31:57.861Z,4.85
2023-05-27T01:34:35.987Z,4.07
2023-05-27T01:37:09.778Z,3.97
2023-05-27T01:39:39.886Z,3.85
2023-05-27T01:42:09.894Z,5.18
2023-05-27T01:44:38.959Z,4.22
2023-05-27T01:47:08.768Z,4.03
2023-05-27T01:49:37.318Z,4.07
2023-05-27T01:52:06.800Z,5.03
2023-05-27T01:54:35.485Z,4.80
2023-05-27T01:57:06.385Z,4.40
2023-05-27T01:59:34.874Z,4.50
2023-05-27T02:02:03.463Z,4.20
2023-05-27T02:04:31.929Z,4.97
2023-05-27T02:07:00.530Z,4.50
2023-05-27T02:09:29.074Z,4.50
2023-05-27T02:11:57.601Z,3.95
2023-05-27T02:14:28.182Z,4.30
2023-05-27T02:16:56.878Z,3.90
2023-05-27T02:19:25.945Z,5.00
2023-05-27T02:21:54.447Z,3.58
2023-05-27T02:24:22.972Z,5.13
2023-05-27T02:26:51.610Z,4.47
2023-05-27T02:29:20.163Z,4.65
2023-05-27T02:31:50.030Z,4.35
2023-05-27T02:34:18.621Z,4.93
2023-05-27T02:36:47.238Z,3.95
2023-05-27T02:39:15.700Z,3.80
2023-05-27T02:41:44.201Z,4.05
2023-05-27T02:44:13.722Z,4.65
2023-05-27T02:46:42.137Z,5.38
2023-05-27T02:49:12.040Z,3.63
2023-05-27T02:51:40.679Z,4.03
2023-05-27T02:54:09.217Z,3.95
2023-05-27T02:56:37.648Z,4.55
2023-05-27T02:59:08.783Z,3.60
2023-05-27T03:01:37.300Z,4.20
2023-05-27T03:04:06.197Z,4.47
2023-05-27T03:06:37.112Z,3.80
2023-05-27T03:09:06.347Z,3.30
2023-05-27T03:11:34.871Z,4.40
2023-05-27T03:14:03.514Z,3.63
2023-05-27T03:16:32.664Z,2.95
2023-05-27T03:19:01.567Z,4.95
2023-05-27T03:21:30.905Z,3.22
2023-05-27T03:24:00.777Z,4.32
2023-05-27T03:26:30.368Z,4.60
2023-05-27T03:29:00.877Z,4.38
2023-05-27T03:31:29.577Z,4.05
2023-05-27T03:34:03.863Z,4.65
2023-05-27T03:36:32.316Z,5.05
2023-05-27T03:39:02.111Z,3.42
2023-05-27T03:41:34.131Z,4.38
2023-05-27T03:44:02.996Z,4.05
2023-05-27T03:46:31.626Z,3.55
2023-05-27T03:49:00.872Z,3.50
2023-05-27T03:51:29.473Z,4.63
2023-05-27T03:53:58.253Z,4.60
2023-05-27T03:56:28.029Z,2.97
2023-05-27T03:58:57.400Z,3.22
2023-05-27T04:01:28.762Z,3.38
2023-05-27T04:03:57.366Z,3.42
2023-05-27T04:06:25.953Z,3.72
2023-05-27T04:08:54.404Z,3.75
2023-05-27T04:11:23.796Z,4.75
2023-05-27T04:13:54.471Z,4.60
2023-05-27T04:16:24.506Z,3.53
2023-05-27T04:18:53.031Z,4.00
2023-05-27T04:21:22.161Z,5.00
2023-05-27T04:23:51.594Z,4.20
2023-05-27T04:26:21.082Z,3.65
2023-05-27T04:28:55.604Z,3.95
2023-05-27T04:31:24.829Z,3.83
2023-05-27T04:33:59.881Z,3.30
2023-05-27T04:36:34.000Z,3.70
2023-05-27T04:39:10.079Z,3.78
2023-05-27T04:41:40.835Z,3.75
2023-05-27T04:44:14.047Z,3.53
2023-05-27T04:46:45.738Z,4.18
2023-05-27T04:49:14.579Z,4.07
2023-05-27T04:51:46.022Z,3.28
2023-05-27T04:54:15.713Z,3.13
2023-05-27T04:56:44.486Z,4.45
2023-05-27T04:59:22.673Z,4.05
2023-05-27T05:02:11.029Z,3.70
2023-05-27T05:04:52.093Z,4.47
2023-05-27T05:07:20.810Z,3.85
2023-05-27T05:09:51.837Z,3.42
2023-05-27T05:12:27.968Z,3.85
2023-05-27T05:14:58.701Z,4.03
2023-05-27T05:17:28.024Z,4.28
2023-05-27T05:19:56.995Z,3.47
2023-05-27T05:22:29.903Z,4.15
2023-05-27T05:24:58.357Z,3.70
2023-05-27T05:27:33.378Z,3.35
2023-05-27T05:30:04.867Z,3.78
2023-05-27T05:32:33.664Z,3.95
2023-05-27T05:35:02.208Z,4.03
2023-05-27T05:37:30.837Z,3.10
2023-05-27T05:39:59.374Z,4.13
2023-05-27T05:42:28.279Z,4.45
2023-05-27T05:44:56.858Z,3.88
2023-05-27T05:47:26.709Z,2.95
2023-05-27T05:50:06.518Z,4.10
2023-05-27T05:52:37.267Z,3.58
2023-05-27T05:55:06.984Z,3.58
2023-05-27T05:57:36.444Z,3.03
2023-05-27T06:00:09.163Z,4.40
2023-05-27T06:02:47.847Z,3.20
2023-05-27T06:05:36.524Z,4.35
2023-05-27T06:08:05.269Z,3.47
2023-05-27T06:10:36.882Z,3.03
2023-05-27T06:13:06.627Z,3.92
2023-05-27T06:15:36.373Z,3.35
2023-05-27T06:18:06.758Z,4.68
2023-05-27T06:20:35.279Z,3.80
2023-05-27T06:23:04.693Z,4.25
2023-05-27T06:26:02.273Z,3.47
2023-05-27T06:28:34.213Z,4.10
2023-05-27T06:31:03.495Z,3.08
2023-05-27T06:33:33.491Z,4.07
2023-05-27T06:36:02.027Z,4.15
2023-05-27T06:38:30.556Z,5.53
2023-05-27T06:41:00.070Z,8.32
2023-05-27T06:43:28.759Z,4.97
2023-05-27T06:46:23.948Z,8.10
2023-05-27T06:49:09.082Z,5.97
2023-05-27T06:51:37.970Z,5.72
2023-05-27T06:54:07.313Z,7.68
2023-05-27T06:56:44.316Z,7.82
2023-05-27T06:59:32.786Z,7.75
2023-05-27T07:02:01.709Z,8.60
2023-05-27T07:04:32.064Z,10.23
2023-05-27T07:07:04.210Z,10.63
2023-05-27T07:09:32.698Z,8.32
2023-05-27T07:12:01.283Z,8.20
2023-05-27T07:14:48.306Z,7.15
2023-05-27T07:17:16.974Z,7.38
2023-05-27T07:19:47.138Z,14.00
2023-05-27T07:22:19.399Z,9.95
2023-05-27T07:24:48.426Z,8.85
2023-05-27T07:27:16.966Z,9.20
2023-05-27T07:29:54.784Z,10.85
2023-05-27T07:32:37.478Z,7.70
2023-05-27T07:35:08.089Z,9.48
2023-05-27T07:37:36.689Z,6.68
2023-05-27T07:40:06.409Z,8.45
2023-05-27T07:45:08.962Z,10.90
2023-05-27T07:47:37.538Z,13.55
2023-05-27T07:50:08.895Z,7.30
2023-05-27T07:52:42.102Z,7.88
2023-05-27T07:55:22.515Z,8.52
2023-05-27T07:57:51.454Z,7.47
2023-05-27T08:00:20.237Z,7.00
2023-05-27T08:02:55.267Z,8.57
2023-05-27T08:05:56.813Z,7.68
2023-05-27T08:08:37.011Z,7.72
2023-05-27T08:11:23.686Z,6.82
2023-05-27T08:14:03.046Z,7.10
2023-05-27T08:16:48.905Z,6.53
2023-05-27T08:19:43.342Z,8.65
2023-05-27T08:22:24.580Z,6.35
2023-05-27T08:27:53.709Z,7.25
2023-05-27T08:30:45.217Z,5.85
2023-05-27T08:33:20.598Z,6.75
2023-05-27T08:35:49.142Z,6.78
2023-05-27T08:38:19.134Z,6.30
2023-05-27T08:40:48.244Z,6.57
2023-05-27T08:43:17.919Z,5.55
2023-05-27T08:45:47.301Z,9.55
2023-05-27T08:48:17.149Z,5.03
2023-05-27T08:50:47.748Z,6.22
2023-05-27T08:53:19.694Z,7.38
2023-05-27T08:55:52.921Z,5.72
2023-05-27T08:58:22.337Z,6.63
2023-05-27T09:00:52.678Z,6.90
2023-05-27T09:03:23.957Z,7.97
2023-05-27T09:05:53.725Z,4.60
2023-05-27T09:08:28.064Z,7.13
2023-05-27T09:11:01.091Z,7.70
2023-05-27T09:13:31.066Z,5.65
2023-05-27T09:16:01.709Z,4.70
2023-05-27T09:18:31.740Z,6.78
2023-05-27T09:21:00.484Z,6.35
2023-05-27T09:23:30.345Z,4.90
2023-05-27T09:25:58.850Z,5.90
2023-05-27T09:28:28.374Z,5.90
2023-05-27T09:31:03.277Z,6.97
2023-05-27T09:33:33.753Z,5.22
2023-05-27T09:36:02.300Z,8.27
2023-05-27T09:38:33.184Z,5.40
2023-05-27T09:41:02.472Z,8.75
2023-05-27T09:43:32.044Z,6.30
2023-05-27T09:46:02.576Z,21.55
2023-05-27T09:48:33.350Z,11.55
2023-05-27T09:51:02.458Z,14.98
2023-05-27T09:53:32.612Z,15.57
2023-05-27T09:56:01.164Z,18.83
2023-05-27T09:58:29.742Z,12.68
2023-05-27T10:00:59.512Z,10.00
2023-05-27T10:03:29.462Z,12.77
2023-05-27T10:05:58.210Z,12.55
2023-05-27T10:08:27.496Z,10.80
2023-05-27T10:10:58.053Z,8.60
2023-05-27T10:13:27.842Z,17.08
2023-05-27T10:15:56.445Z,8.25
2023-05-27T10:18:26.028Z,9.50
2023-05-27T10:20:55.060Z,8.35
2023-05-27T10:23:27.496Z,11.75
2023-05-27T10:25:59.002Z,15.35
2023-05-27T10:28:28.847Z,9.40
2023-05-27T10:31:06.725Z,8.90
2023-05-27T10:33:37.635Z,17.13
2023-05-27T10:36:09.494Z,10.45
2023-05-27T10:38:38.701Z,10.85
2023-05-27T10:41:09.291Z,14.77
2023-05-27T10:43:38.503Z,9.95
2023-05-27T10:46:10.284Z,9.02
2023-05-27T10:48:40.776Z,9.32
2023-05-27T10:51:10.227Z,8.25
2023-05-27T10:53:39.664Z,7.95
2023-05-27T10:56:10.252Z,8.80
2023-05-27T10:58:40.109Z,6.97
2023-05-27T11:01:13.312Z,6.03
2023-05-27T11:03:47.250Z,6.30
2023-05-27T11:06:17.721Z,7.82
2023-05-27T11:08:46.376Z,9.65
2023-05-27T11:11:16.265Z,11.07
2023-05-27T11:13:48.629Z,11.65
2023-05-27T11:16:18.394Z,8.63
2023-05-27T11:18:48.052Z,14.38
2023-05-27T11:21:19.338Z,16.45
2023-05-27T11:23:49.938Z,15.95
2023-05-27T11:26:22.617Z,12.90
2023-05-27T11:28:52.769Z,14.93
2023-05-27T11:31:22.348Z,15.10
2023-05-27T11:33:52.558Z,17.50
2023-05-27T11:36:22.547Z,22.13
2023-05-27T11:38:52.788Z,24.38
2023-05-27T11:41:23.775Z,17.55
2023-05-27T11:43:54.155Z,22.20
2023-05-27T11:46:23.674Z,19.58
2023-05-27T11:48:53.036Z,26.80
2023-05-27T11:51:29.827Z,18.45
2023-05-27T11:54:00.206Z,20.80
2023-05-27T11:56:30.817Z,18.58
2023-05-27T11:59:00.051Z,16.70
2023-05-27T12:01:28.623Z,10.10
2023-05-27T12:03:57.173Z,11.10
2023-05-27T12:06:26.282Z,7.38
2023-05-27T12:08:54.812Z,12.50
2023-05-27T12:11:23.306Z,14.43
2023-05-27T12:13:55.409Z,10.57
2023-05-27T12:16:23.942Z,11.15
2023-05-27T12:18:52.645Z,13.52
2023-05-27T12:21:21.849Z,12.48
2023-05-27T12:23:50.539Z,11.38
2023-05-27T12:26:19.262Z,9.00
2023-05-27T12:28:47.798Z,9.52
2023-05-27T12:31:18.415Z,10.10
2023-05-27T12:33:46.893Z,10.52
2023-05-27T12:36:15.941Z,11.20
2023-05-27T12:38:44.850Z,9.95
2023-05-27T12:41:13.580Z,10.68
2023-05-27T12:43:42.003Z,11.85
2023-05-27T12:46:10.537Z,12.52
2023-05-27T12:48:40.424Z,9.85
2023-05-27T12:51:08.980Z,9.90
2023-05-27T12:53:37.460Z,12.55
2023-05-27T12:56:06.068Z,8.70
2023-05-27T12:58:34.660Z,8.93
2023-05-27T13:01:03.511Z,15.43
2023-05-27T13:03:32.120Z,10.88
2023-05-27T13:06:02.041Z,9.07
2023-05-27T13:08:30.559Z,8.95
2023-05-27T13:10:59.095Z,10.15
2023-05-27T13:13:27.816Z,11.40
2023-05-27T13:15:56.408Z,8.48
2023-05-27T13:18:24.862Z,12.82
2023-05-27T13:20:53.449Z,11.75
2023-05-27T13:23:23.375Z,9.90
2023-05-27T13:25:52.094Z,7.43
2023-05-27T13:28:20.839Z,9.05
2023-05-27T13:30:49.341Z,9.15
2023-05-27T13:33:17.952Z,7.75
2023-05-27T13:35:47.180Z,8.63
2023-05-27T13:38:17.771Z,9.48
2023-05-27T13:40:47.622Z,9.70
2023-05-27T13:43:16.098Z,7.75
2023-05-27T13:45:44.653Z,6.85
2023-05-27T13:48:13.459Z,6.30
2023-05-27T13:50:41.909Z,15.75
2023-05-27T13:53:10.466Z,8.38
2023-05-27T13:55:39.043Z,8.55
2023-05-27T13:58:08.935Z,9.15
2023-05-27T14:00:37.458Z,8.25
2023-05-27T14:03:06.067Z,8.85
2023-05-27T14:05:36.760Z,10.38
2023-05-27T14:08:05.666Z,9.85
2023-05-27T14:10:36.921Z,10.10
2023-05-27T14:13:06.123Z,8.73
2023-05-27T14:15:36.651Z,8.45
2023-05-27T14:18:06.077Z,8.93
2023-05-27T14:20:36.804Z,8.68
2023-05-27T14:23:05.833Z,7.63
2023-05-27T14:25:34.392Z,8.88
2023-05-27T14:28:05.088Z,6.75
2023-05-27T14:30:37.476Z,7.57
2023-05-27T14:33:08.946Z,9.35
2023-05-27T14:35:37.960Z,7.38
2023-05-27T14:38:07.556Z,8.48
2023-05-27T14:40:36.446Z,7.18
2023-05-27T14:43:05.147Z,11.02
2023-05-27T14:45:34.517Z,6.72
2023-05-27T14:48:03.292Z,6.82
2023-05-27T14:50:33.182Z,8.65
2023-05-27T14:53:02.083Z,8.00
2023-05-27T14:55:30.870Z,8.27
2023-05-27T14:57:59.486Z,8.38
2023-05-27T15:00:28.163Z,7.88
2023-05-27T15:02:56.763Z,6.90
2023-05-27T15:05:25.395Z,9.57
2023-05-27T15:07:55.276Z,6.80
2023-05-27T15:10:23.850Z,7.28
2023-05-27T15:12:52.322Z,7.45
2023-05-27T15:15:22.789Z,7.35
2023-05-27T15:17:51.489Z,8.40
2023-05-27T15:20:20.387Z,7.28
2023-05-27T15:22:48.960Z,9.30
2023-05-27T15:25:19.010Z,9.07
2023-05-27T15:27:47.584Z,10.68
2023-05-27T15:30:16.547Z,11.30
2023-05-27T15:32:45.241Z,7.10
2023-05-27T15:35:14.137Z,10.00
2023-05-27T15:37:42.724Z,7.20
2023-05-27T15:40:12.021Z,7.90
2023-05-27T15:42:41.957Z,7.22
2023-05-27T15:45:11.173Z,9.23
2023-05-27T15:47:39.846Z,8.82
2023-05-27T15:50:09.092Z,12.00
2023-05-27T15:52:37.658Z,7.63
2023-05-27T15:55:06.837Z,6.90
2023-05-27T15:57:35.754Z,10.57
2023-05-27T16:00:07.018Z,9.20
2023-05-27T16:02:40.358Z,9.73
2023-05-27T16:05:13.911Z,7.38
2023-05-27T16:07:44.265Z,10.18
2023-05-27T16:10:13.074Z,7.28
2023-05-27T16:12:41.601Z,9.75
2023-05-27T16:15:13.510Z,7.55
2023-05-27T16:17:43.788Z,7.80
2023-05-27T16:20:13.670Z,8.05
2023-05-27T16:22:42.421Z,7.65
2023-05-27T16:25:11.295Z,8.57
2023-05-27T16:27:39.815Z,8.40
2023-05-27T16:30:09.320Z,7.35
2023-05-27T16:32:39.195Z,8.35
2023-05-27T16:35:08.465Z,6.35
2023-05-27T16:37:37.692Z,6.40
2023-05-27T16:40:09.176Z,6.50
2023-05-27T16:42:37.597Z,6.40
2023-05-27T16:45:07.301Z,7.15
2023-05-27T16:47:36.415Z,7.25
2023-05-27T16:50:07.266Z,6.05
2023-05-27T16:52:35.757Z,6.07
2023-05-27T16:55:05.393Z,13.15
2023-05-27T16:57:33.864Z,15.07
2023-05-27T17:00:02.403Z,7.65
2023-05-27T17:02:32.567Z,8.45
2023-05-27T17:05:01.094Z,8.25
2023-05-27T17:07:31.125Z,12.50
2023-05-27T17:09:59.719Z,6.57
2023-05-27T17:12:28.252Z,10.30
2023-05-27T17:14:56.934Z,6.75
2023-05-27T17:17:25.448Z,3.60
2023-05-27T17:19:53.987Z,3.45
2023-05-27T17:22:22.658Z,4.40
2023-05-27T17:24:52.586Z,4.93
2023-05-27T17:27:21.154Z,2.72
2023-05-27T17:29:49.720Z,3.05
2023-05-27T17:32:18.273Z,2.70
2023-05-27T17:34:46.784Z,2.40
2023-05-27T17:37:15.368Z,3.22
2023-05-27T17:39:43.830Z,3.92
2023-05-27T17:42:13.710Z,1.98
2023-05-27T17:44:42.255Z,2.33
2023-05-27T17:47:11.245Z,1.50
2023-05-27T17:49:39.812Z,1.83
2023-05-27T17:52:20.226Z,2.13
2023-05-27T17:54:50.090Z,2.05
2023-05-27T17:57:19.918Z,0.75
2023-05-27T17:59:49.503Z,2.03
2023-05-27T18:02:18.238Z,0.65
2023-05-27T18:04:46.935Z,1.27
2023-05-27T18:07:17.560Z,0.90
2023-05-27T18:09:46.345Z,0.90
2023-05-27T18:12:14.889Z,1.60
2023-05-27T18:14:44.726Z,1.25
2023-05-27T18:17:13.267Z,0.85
2023-05-27T18:19:41.750Z,0.80
2023-05-27T18:22:10.280Z,1.45
2023-05-27T18:24:38.706Z,0.75
2023-05-27T18:27:07.243Z,0.40
2023-05-27T18:29:35.748Z,0.20
2023-05-27T18:32:06.146Z,0.28
2023-05-27T18:34:34.609Z,0.25
2023-05-27T18:37:03.130Z,0.40
2023-05-27T18:39:31.633Z,0.20
2023-05-27T18:42:00.162Z,0.93
2023-05-27T18:44:28.633Z,0.43
2023-05-27T18:46:57.241Z,0.20
2023-05-27T18:49:27.176Z,0.20
2023-05-27T18:51:55.689Z,0.40
2023-05-27T18:54:24.271Z,0.20
2023-05-27T18:56:52.724Z,0.20
2023-05-27T18:59:21.224Z,0.30
2023-05-27T19:01:49.646Z,0.40
2023-05-27T19:04:18.207Z,0.45
2023-05-27T19:06:48.228Z,0.30
2023-05-27T19:09:16.843Z,0.40
2023-05-27T19:11:45.362Z,0.28
2023-05-27T19:14:14.094Z,0.17
2023-05-27T19:16:42.678Z,0.20
2023-05-27T19:19:11.268Z,0.75
2023-05-27T19:21:40.284Z,1.70
2023-05-27T19:24:11.875Z,1.90
2023-05-27T19:26:42.405Z,1.25
2023-05-27T19:29:11.176Z,0.75
2023-05-27T19:31:39.699Z,1.10
2023-05-27T19:34:09.346Z,0.68
2023-05-27T19:36:37.806Z,2.53
2023-05-27T19:39:06.382Z,0.68
2023-05-27T19:41:36.153Z,1.90
2023-05-27T19:44:04.618Z,0.50
2023-05-27T19:46:33.142Z,1.85
2023-05-27T19:49:02.549Z,0.65
2023-05-27T19:51:31.052Z,0.80
2023-05-27T19:53:59.586Z,0.60
2023-05-27T19:56:28.110Z,1.02
2023-05-27T19:58:58.071Z,1.45
2023-05-27T20:01:26.870Z,1.05
2023-05-27T20:03:57.908Z,1.27
2023-05-27T20:06:26.663Z,1.10
2023-05-27T20:08:55.533Z,1.85
2023-05-27T20:11:24.196Z,0.70
2023-05-27T20:13:53.393Z,0.75
2023-05-27T20:16:24.269Z,1.77
2023-05-27T20:18:52.957Z,1.33
2023-05-27T20:21:22.305Z,1.48
2023-05-27T20:23:50.836Z,1.33
2023-05-27T20:26:19.391Z,1.63
2023-05-27T20:28:47.886Z,1.95
2023-05-27T20:31:16.731Z,3.95
2023-05-27T20:33:46.557Z,1.50
2023-05-27T20:36:15.022Z,1.95
2023-05-27T20:38:43.602Z,0.82
2023-05-27T20:41:12.085Z,1.50
2023-05-27T20:43:42.796Z,1.17
2023-05-27T20:46:11.450Z,0.75
2023-05-27T20:48:40.013Z,0.73
2023-05-27T20:51:09.868Z,0.52
2023-05-27T20:53:38.377Z,0.90
2023-05-27T20:56:07.198Z,0.52
2023-05-27T20:58:35.913Z,1.05
2023-05-27T21:01:04.328Z,0.40
2023-05-27T21:03:34.501Z,0.40
2023-05-27T21:06:03.207Z,0.50
2023-05-27T21:08:32.995Z,0.70
2023-05-27T21:11:01.461Z,0.30
2023-05-27T21:13:29.963Z,0.47
2023-05-27T21:15:58.574Z,0.32
2023-05-27T21:18:27.328Z,0.38
2023-05-27T21:20:56.303Z,0.45
2023-05-27T21:23:25.203Z,0.93
2023-05-27T21:25:55.754Z,0.68
2023-05-27T21:28:24.399Z,0.68
2023-05-27T21:30:53.063Z,0.68
2023-05-27T21:33:21.740Z,0.52
2023-05-27T21:35:50.385Z,0.35
2023-05-27T21:38:19.222Z,0.20
2023-05-27T21:40:47.753Z,0.75
2023-05-27T21:43:17.575Z,0.20
2023-05-27T21:45:46.048Z,0.30
2023-05-27T21:48:14.864Z,1.08
2023-05-27T21:50:43.527Z,0.40
2023-05-27T21:53:12.110Z,0.25
2023-05-27T21:55:40.675Z,0.38
2023-05-27T21:58:11.537Z,0.57
2023-05-27T22:00:42.276Z,0.28
2023-05-27T22:03:10.883Z,0.20
2023-05-27T22:05:40.702Z,0.30
2023-05-27T22:08:09.602Z,0.38
2023-05-27T22:10:38.100Z,0.52
2023-05-27T22:13:06.505Z,0.30
2023-05-27T22:15:34.990Z,0.80
2023-05-27T22:18:05.204Z,0.65
2023-05-27T22:20:33.788Z,0.20
2023-05-27T22:23:02.905Z,0.35
2023-05-27T22:25:33.193Z,0.20
2023-05-27T22:28:02.151Z,0.20
2023-05-27T22:30:30.850Z,0.25
2023-05-27T22:32:59.517Z,0.28
2023-05-27T22:35:29.348Z,0.40
2023-05-27T22:37:57.890Z,0.50
2023-05-27T22:40:27.107Z,0.30
2023-05-27T22:42:55.755Z,0.20
2023-05-27T22:45:24.351Z,0.10
2023-05-27T22:47:52.854Z,0.45
2023-05-27T22:50:21.523Z,0.30
2023-05-27T22:52:51.752Z,0.30
2023-05-27T22:55:20.376Z,0.30
2023-05-27T22:57:48.855Z,0.22
2023-05-27T23:00:17.854Z,1.15
2023-05-27T23:02:47.043Z,0.20
2023-05-27T23:05:15.810Z,0.40
2023-05-27T23:07:44.364Z,0.32
2023-05-27T23:10:14.270Z,0.22
2023-05-27T23:12:42.760Z,0.30
2023-05-27T23:15:11.337Z,0.30
2023-05-27T23:17:39.974Z,0.95
2023-05-27T23:20:10.996Z,0.30
2023-05-27T23:22:39.452Z,0.25
2023-05-27T23:25:08.740Z,0.17
2023-05-27T23:27:38.895Z,0.57
2023-05-27T23:30:09.057Z,0.25
2023-05-27T23:32:37.716Z,0.20
2023-05-27T23:35:07.425Z,0.17
2023-05-27T23:37:35.869Z,0.95
2023-05-27T23:40:04.876Z,0.25
2023-05-27T23:42:33.434Z,0.20
2023-05-27T23:45:03.838Z,0.20
2023-05-27T23:47:33.263Z,0.30
2023-05-27T23:50:01.811Z,0.15
2023-05-27T23:52:30.541Z,0.20
2023-05-27T23:54:59.081Z,0.30
2023-05-27T23:57:27.510Z,0.20
